createdAt,value
2022-08-23T00:00:43.969Z,100077.02
2022-08-23T00:03:39.640Z,100087.44
2022-08-23T00:06:24.402Z,100087.61
2022-08-23T00:09:04.805Z,100084.56
2022-08-23T00:12:01.201Z,100081.51
2022-08-23T00:15:02.364Z,100077.93
2022-08-23T00:17:34.457Z,100076.31
2022-08-23T00:20:20.739Z,100071.33
2022-08-23T00:22:56.767Z,100072.04
2022-08-23T00:25:40.099Z,100074.05
2022-08-23T00:28:26.054Z,100080.87
2022-08-23T00:30:58.426Z,100086.05
2022-08-23T00:33:40.102Z,100080.86
2022-08-23T00:36:23.325Z,100076.90
2022-08-23T00:39:20.170Z,100078.65
2022-08-23T00:41:57.246Z,100078.10
2022-08-23T00:45:00.578Z,100084.34
2022-08-23T00:48:25.619Z,100099.34
2022-08-23T00:51:52.351Z,100112.52
2022-08-23T00:54:46.505Z,100116.82
2022-08-23T00:57:28.840Z,100130.45
2022-08-23T01:00:24.399Z,100134.56
2022-08-23T01:04:10.364Z,100135.45
2022-08-23T01:07:43.066Z,100131.82
2022-08-23T01:10:38.479Z,100141.83
2022-08-23T01:13:36.555Z,100140.54
2022-08-23T01:16:34.447Z,100143.99
2022-08-23T01:19:42.745Z,100145.66
2022-08-23T01:22:38.286Z,100141.05
2022-08-23T01:25:40.390Z,100141.25
2022-08-23T01:28:40.781Z,100125.70
2022-08-23T01:31:39.379Z,100121.59
2022-08-23T01:34:23.861Z,100116.41
2022-08-23T01:37:11.180Z,100131.10
2022-08-23T01:40:26.304Z,100144.14
2022-08-23T01:43:22.828Z,100153.79
2022-08-23T01:46:22.016Z,100169.02
2022-08-23T01:49:08.176Z,100162.63
2022-08-23T01:51:44.696Z,100160.42
2022-08-23T01:54:34.328Z,100158.86
2022-08-23T01:57:15.023Z,100152.45
2022-08-23T01:59:50.207Z,100157.70
2022-08-23T02:03:07.149Z,100170.98
2022-08-23T02:05:48.221Z,100169.38
2022-08-23T02:09:03.516Z,100158.48
2022-08-23T02:11:51.458Z,100147.67
2022-08-23T02:14:34.408Z,100150.56
2022-08-23T02:17:19.058Z,100151.45
2022-08-23T02:20:15.350Z,100146.81
2022-08-23T02:22:52.753Z,100149.31
2022-08-23T02:25:47.463Z,100149.10
2022-08-23T02:28:36.814Z,100139.27
2022-08-23T02:31:31.765Z,100128.42
2022-08-23T02:34:30.308Z,100127.59
2022-08-23T02:37:05.842Z,100122.93
2022-08-23T02:39:53.718Z,100131.14
2022-08-23T02:42:35.758Z,100138.28
2022-08-23T02:45:10.493Z,100127.34
2022-08-23T02:47:42.146Z,100108.60
2022-08-23T02:50:19.143Z,100108.45
2022-08-23T02:53:01.609Z,100110.92
2022-08-23T02:55:41.913Z,100113.91
2022-08-23T02:58:11.940Z,100116.17
2022-08-23T03:00:49.323Z,100111.50
2022-08-23T03:03:26.947Z,100110.61
2022-08-23T03:06:03.987Z,100110.23
2022-08-23T03:09:18.812Z,100093.08
2022-08-23T03:12:00.217Z,100087.58
2022-08-23T03:15:00.196Z,100084.60
2022-08-23T03:17:38.206Z,100084.48
2022-08-23T03:20:54.354Z,100083.08
2022-08-23T03:23:51.416Z,100087.33
2022-08-23T03:26:47.186Z,100087.97
2022-08-23T03:29:30.881Z,100084.35
2022-08-23T03:32:09.732Z,100080.58
2022-08-23T03:34:47.096Z,100074.54
2022-08-23T03:37:30.337Z,100077.27
2022-08-23T03:40:09.731Z,100080.98
2022-08-23T03:42:56.967Z,100079.19
2022-08-23T03:45:48.385Z,100081.52
2022-08-23T03:48:49.958Z,100085.61
2022-08-23T03:51:34.268Z,100087.73
2022-08-23T03:54:24.893Z,100089.67
2022-08-23T03:57:17.904Z,100094.67
2022-08-23T04:00:45.330Z,100090.38
2022-08-23T04:03:44.745Z,100090.20
2022-08-23T04:06:26.007Z,100087.89
2022-08-23T04:08:58.168Z,100085.42
2022-08-23T04:11:59.653Z,100086.70
2022-08-23T04:14:37.411Z,100093.48
2022-08-23T04:17:32.072Z,100092.23
2022-08-23T04:20:18.282Z,100089.86
2022-08-23T04:22:56.624Z,100093.42
2022-08-23T04:25:44.404Z,100095.91
2022-08-23T04:28:36.498Z,100100.56
2022-08-23T04:31:42.728Z,100103.45
2022-08-23T04:34:20.287Z,100105.05
2022-08-23T04:36:56.126Z,100104.33
2022-08-23T04:39:30.656Z,100112.17
2022-08-23T04:42:21.807Z,100106.45
2022-08-23T04:45:17.054Z,100104.55
2022-08-23T04:47:56.555Z,100107.27
2022-08-23T04:50:39.397Z,100109.44
2022-08-23T04:53:16.845Z,100111.58
2022-08-23T04:55:53.562Z,100113.57
2022-08-23T04:58:27.819Z,100120.02
2022-08-23T05:01:18.376Z,100117.68
2022-08-23T05:03:58.326Z,100123.39
2022-08-23T05:06:36.759Z,100127.46
2022-08-23T05:09:32.143Z,100127.80
2022-08-23T05:12:36.976Z,100129.75
2022-08-23T05:15:17.843Z,100138.13
2022-08-23T05:18:05.519Z,100144.17
2022-08-23T05:20:48.839Z,100147.50
2022-08-23T05:23:50.839Z,100148.02
2022-08-23T05:26:55.442Z,100144.63
2022-08-23T05:29:54.376Z,100139.43
2022-08-23T05:32:57.195Z,100142.17
2022-08-23T05:35:53.266Z,100147.75
2022-08-23T05:38:55.092Z,100150.96
2022-08-23T05:41:49.443Z,100155.06
2022-08-23T05:44:40.884Z,100159.82
2022-08-23T05:47:33.828Z,100162.98
2022-08-23T05:50:33.925Z,100172.42
2022-08-23T05:53:38.953Z,100183.89
2022-08-23T05:57:03.095Z,100183.67
2022-08-23T06:00:01.215Z,100186.52
2022-08-23T06:02:51.921Z,100182.90
2022-08-23T06:05:56.645Z,100181.98
2022-08-23T06:09:03.869Z,100181.20
2022-08-23T06:11:54.690Z,100186.31
2022-08-23T06:14:27.846Z,100191.58
2022-08-23T06:17:06.022Z,100189.91
2022-08-23T06:19:43.783Z,100193.25
2022-08-23T06:22:27.626Z,100195.73
2022-08-23T06:25:27.197Z,100193.70
2022-08-23T06:28:36.229Z,100199.14
2022-08-23T06:31:52.260Z,100202.75
2022-08-23T06:35:33.198Z,100203.66
2022-08-23T06:38:41.578Z,100211.93
2022-08-23T06:41:27.159Z,100213.92
2022-08-23T06:44:32.316Z,100216.86
2022-08-23T06:47:26.944Z,100217.29
2022-08-23T06:50:21.592Z,100212.91
2022-08-23T06:53:41.644Z,100210.85
2022-08-23T06:57:03.166Z,100210.98
2022-08-23T06:59:56.280Z,100210.48
2022-08-23T07:03:01.038Z,100208.07
2022-08-23T07:05:55.814Z,100207.75
2022-08-23T07:08:46.031Z,100206.13
2022-08-23T07:11:32.466Z,100205.23
2022-08-23T07:14:34.404Z,100200.05
2022-08-23T07:17:10.560Z,100202.16
2022-08-23T07:20:03.374Z,100209.48
2022-08-23T07:22:45.068Z,100204.02
2022-08-23T07:25:41.541Z,100203.10
2022-08-23T07:28:27.022Z,100204.33
2022-08-23T07:31:14.420Z,100203.73
2022-08-23T07:38:12.167Z,100203.71
2022-08-23T07:41:12.624Z,100203.70
2022-08-23T07:44:13.233Z,100199.64
2022-08-23T07:46:52.483Z,100208.46
2022-08-23T07:49:54.850Z,100206.29
2022-08-23T07:52:33.760Z,100210.34
2022-08-23T07:55:40.436Z,100211.68
2022-08-23T07:58:49.901Z,100210.84
2022-08-23T08:01:54.691Z,100210.33
2022-08-23T08:04:44.888Z,100210.69
2022-08-23T08:07:25.228Z,100207.52
2022-08-23T08:10:14.318Z,100206.98
2022-08-23T08:13:06.547Z,100204.23
2022-08-23T08:16:34.021Z,100204.98
2022-08-23T08:19:25.892Z,100210.39
2022-08-23T08:22:30.578Z,100212.10
2022-08-23T08:25:36.218Z,100208.73
2022-08-23T08:28:39.385Z,100211.15
2022-08-23T08:31:46.412Z,100216.45
2022-08-23T08:34:30.958Z,100217.92
2022-08-23T08:37:29.842Z,100213.12
2022-08-23T08:40:54.676Z,100213.58
2022-08-23T08:43:44.146Z,100219.80
2022-08-23T08:47:09.923Z,100217.19
2022-08-23T08:53:02.156Z,100217.58
2022-08-23T08:56:21.835Z,100218.98
2022-08-23T08:59:38.782Z,100221.93
2022-08-23T09:02:41.545Z,100217.11
2022-08-23T09:05:40.694Z,100218.42
2022-08-23T09:09:11.743Z,100217.58
2022-08-23T09:12:51.911Z,100215.76
2022-08-23T09:15:53.416Z,100212.21
2022-08-23T09:19:14.397Z,100215.42
2022-08-23T09:22:51.066Z,100210.11
2022-08-23T09:25:41.996Z,100211.16
2022-08-23T09:28:40.682Z,100211.87
2022-08-23T09:31:37.985Z,100213.45
2022-08-23T09:34:32.380Z,100211.71
2022-08-23T09:37:30.059Z,100215.06
2022-08-23T09:40:59.926Z,100211.42
2022-08-23T09:44:31.607Z,100212.86
2022-08-23T09:47:44.584Z,100212.02
2022-08-23T09:50:42.335Z,100207.05
2022-08-23T09:53:57.382Z,100203.27
2022-08-23T09:57:14.658Z,100199.56
2022-08-23T10:00:32.772Z,100198.39
2022-08-23T10:03:31.679Z,100200.38
2022-08-23T10:06:38.742Z,100200.30
2022-08-23T10:09:41.469Z,100198.48
2022-08-23T10:12:21.427Z,100200.24
2022-08-23T10:15:20.794Z,100201.75
2022-08-23T10:18:16.655Z,100197.40
2022-08-23T10:21:06.629Z,100197.45
2022-08-23T10:24:17.667Z,100197.83
2022-08-23T10:28:06.024Z,100193.20
2022-08-23T10:30:51.864Z,100194.16
2022-08-23T10:33:49.727Z,100192.12
2022-08-23T10:36:59.881Z,100186.20
2022-08-23T10:40:03.137Z,100187.86
2022-08-23T10:43:00.132Z,100182.95
2022-08-23T10:45:37.805Z,100178.88
2022-08-23T10:48:43.235Z,100175.85
2022-08-23T10:51:42.861Z,100175.80
2022-08-23T10:55:00.216Z,100176.77
2022-08-23T10:57:40.922Z,100176.98
2022-08-23T11:00:40.031Z,100174.13
2022-08-23T11:03:40.131Z,100177.36
2022-08-23T11:06:40.792Z,100177.16
2022-08-23T11:09:33.748Z,100176.60
2022-08-23T11:12:55.989Z,100174.83
2022-08-23T11:15:54.915Z,100175.85
2022-08-23T11:18:33.368Z,100175.09
2022-08-23T11:21:37.437Z,100178.16
2022-08-23T11:24:26.630Z,100176.14
2022-08-23T11:26:56.331Z,100173.66
2022-08-23T11:29:43.850Z,100170.35
2022-08-23T11:32:30.934Z,100175.68
2022-08-23T11:35:43.488Z,100178.39
2022-08-23T11:38:22.462Z,100174.73
2022-08-23T11:40:57.274Z,100184.58
2022-08-23T11:43:43.288Z,100180.21
2022-08-23T11:47:12.445Z,100180.34
2022-08-23T11:50:02.090Z,100177.54
2022-08-23T11:53:07.507Z,100179.21
2022-08-23T11:56:33.060Z,100172.05
2022-08-23T11:59:41.540Z,100170.39
2022-08-23T12:02:50.184Z,100176.23
2022-08-23T12:05:37.615Z,100173.16
2022-08-23T12:08:26.583Z,100176.70
2022-08-23T12:11:10.704Z,100178.23
2022-08-23T12:14:37.433Z,100171.36
2022-08-23T12:17:28.719Z,100172.22
2022-08-23T12:20:16.833Z,100174.04
2022-08-23T12:23:20.976Z,100170.23
2022-08-23T12:26:21.963Z,100169.73
2022-08-23T12:29:27.835Z,100169.63
2022-08-23T12:32:12.098Z,100168.22
2022-08-23T12:35:37.103Z,100163.39
2022-08-23T12:38:39.244Z,100166.86
2022-08-23T12:41:56.594Z,100157.23
2022-08-23T12:44:54.983Z,100160.13
2022-08-23T12:47:43.741Z,100153.58
2022-08-23T12:50:16.371Z,100152.61
2022-08-23T12:53:28.289Z,100147.90
2022-08-23T12:56:31.944Z,100146.29
2022-08-23T12:59:32.298Z,100141.70
2022-08-23T13:02:32.462Z,100139.02
2022-08-23T13:05:40.952Z,100141.03
2022-08-23T13:08:37.122Z,100143.41
2022-08-23T13:11:54.170Z,100141.64
2022-08-23T13:14:33.494Z,100139.52
2022-08-23T13:18:02.890Z,100136.94
2022-08-23T13:21:26.123Z,100130.70
2022-08-23T13:24:23.688Z,100120.89
2022-08-23T13:27:23.487Z,100116.45
2022-08-23T13:30:36.588Z,100114.55
2022-08-23T13:33:15.098Z,100101.83
2022-08-23T13:36:13.311Z,100099.45
2022-08-23T13:39:17.408Z,100098.54
2022-08-23T13:42:15.367Z,100092.26
2022-08-23T13:44:55.686Z,100102.78
2022-08-23T13:47:49.907Z,100111.07
2022-08-23T13:50:37.474Z,100111.92
2022-08-23T13:53:46.497Z,100123.35
2022-08-23T13:56:58.728Z,100131.61
2022-08-23T13:59:48.400Z,100133.38
2022-08-23T14:05:45.768Z,100129.89
2022-08-23T14:08:41.394Z,100133.48
2022-08-23T14:11:38.055Z,100133.39
2022-08-23T14:14:16.440Z,100129.23
2022-08-23T14:16:48.982Z,100128.55
2022-08-23T14:23:11.591Z,100132.42
2022-08-23T14:25:45.815Z,100129.20
2022-08-23T14:28:21.776Z,100129.95
2022-08-23T14:31:05.349Z,100133.17
2022-08-23T14:33:48.819Z,100134.29
2022-08-23T14:36:30.106Z,100137.86
2022-08-23T14:39:19.266Z,100142.96
2022-08-23T14:42:06.872Z,100146.75
2022-08-23T14:44:54.115Z,100157.63
2022-08-23T14:47:50.405Z,100160.55
2022-08-23T14:51:06.905Z,100165.05
2022-08-23T14:54:10.246Z,100170.43
2022-08-23T14:57:13.408Z,100171.52
2022-08-23T14:59:51.146Z,100167.30
2022-08-23T15:02:41.941Z,100164.46
2022-08-23T15:05:49.385Z,100164.30
2022-08-23T15:08:27.717Z,100164.73
2022-08-23T15:14:36.190Z,100166.83
2022-08-23T15:17:27.372Z,100163.48
2022-08-23T15:20:02.072Z,100165.39
2022-08-23T15:22:55.878Z,100163.23
2022-08-23T15:26:23.446Z,100171.56
2022-08-23T15:29:08.531Z,100175.30
2022-08-23T15:32:12.772Z,100184.65
2022-08-23T15:34:46.270Z,100184.64
2022-08-23T15:37:44.942Z,100186.59
2022-08-23T15:40:19.350Z,100190.22
2022-08-23T15:43:09.558Z,100191.66
2022-08-23T15:46:03.043Z,100191.14
2022-08-23T15:48:59.045Z,100191.27
2022-08-23T15:52:39.813Z,100192.25
2022-08-23T15:55:46.504Z,100201.38
2022-08-23T15:59:03.639Z,100222.95
2022-08-23T16:01:45.119Z,100237.75
2022-08-23T16:07:26.766Z,100237.80
2022-08-23T16:10:01.397Z,100238.19
2022-08-23T16:13:17.625Z,100235.79
2022-08-23T16:16:43.345Z,100238.44
2022-08-23T16:19:38.519Z,100234.63
2022-08-23T16:22:17.278Z,100235.35
2022-08-23T16:25:20.967Z,100234.80
2022-08-23T16:27:59.680Z,100235.73
2022-08-23T16:30:43.477Z,100237.39
2022-08-23T16:33:31.654Z,100242.77
2022-08-23T16:36:54.994Z,100246.48
2022-08-23T16:39:59.756Z,100248.21
2022-08-23T16:43:40.075Z,100256.11
2022-08-23T16:46:45.529Z,100264.70
2022-08-23T16:49:40.774Z,100265.78
2022-08-23T16:52:34.433Z,100268.92
2022-08-23T16:59:14.523Z,100286.44
2022-08-23T17:02:14.595Z,100288.52
2022-08-23T17:05:11.473Z,100291.93
2022-08-23T17:07:54.863Z,100293.70
2022-08-23T17:11:55.663Z,100299.83
2022-08-23T17:14:52.854Z,100314.02
2022-08-23T17:18:00.407Z,100319.37
2022-08-23T17:20:57.332Z,100321.20
2022-08-23T17:23:40.890Z,100320.23
2022-08-23T17:26:50.330Z,100325.44
2022-08-23T17:29:49.613Z,100335.60
2022-08-23T17:33:00.818Z,100348.98
2022-08-23T17:35:49.649Z,100350.66
2022-08-23T17:39:23.556Z,100355.63
2022-08-23T17:42:24.780Z,100358.61
2022-08-23T17:45:35.817Z,100357.95
2022-08-23T17:48:34.712Z,100353.52
2022-08-23T17:51:31.050Z,100356.36
2022-08-23T17:54:36.931Z,100356.11
2022-08-23T17:57:49.238Z,100355.23
2022-08-23T18:00:55.185Z,100360.69
2022-08-23T18:03:30.603Z,100365.60
2022-08-23T18:06:27.772Z,100366.94
2022-08-23T18:09:15.349Z,100371.13
2022-08-23T18:12:34.299Z,100370.86
2022-08-23T18:15:15.825Z,100369.82
2022-08-23T18:17:58.296Z,100375.27
2022-08-23T18:20:41.558Z,100374.08
2022-08-23T18:23:56.206Z,100375.16
2022-08-23T18:27:17.712Z,100377.35
2022-08-23T18:30:07.018Z,100379.89
2022-08-23T18:32:50.939Z,100384.95
2022-08-23T18:35:44.319Z,100390.71
2022-08-23T18:38:35.298Z,100406.96
2022-08-23T18:41:20.418Z,100414.71
2022-08-23T18:44:52.767Z,100416.17
2022-08-23T18:47:41.394Z,100408.85
2022-08-23T18:50:14.692Z,100409.08
2022-08-23T18:53:00.187Z,100407.53
2022-08-23T18:55:43.808Z,100401.66
2022-08-23T18:58:48.791Z,100404.80
2022-08-23T19:01:33.121Z,100407.54
2022-08-23T19:04:15.904Z,100408.83
2022-08-23T19:06:59.476Z,100405.14
2022-08-23T19:09:37.995Z,100401.08
2022-08-23T19:12:31.871Z,100400.20
2022-08-23T19:15:24.891Z,100400.59
2022-08-23T19:18:08.127Z,100397.94
2022-08-23T19:20:44.784Z,100406.02
2022-08-23T19:23:43.472Z,100401.36
2022-08-23T19:26:35.297Z,100407.47
2022-08-23T19:29:16.407Z,100399.91
2022-08-23T19:31:53.139Z,100402.25
2022-08-23T19:34:32.531Z,100407.09
2022-08-23T19:37:16.202Z,100404.23
2022-08-23T19:40:11.822Z,100396.48
2022-08-23T19:43:03.951Z,100399.55
2022-08-23T19:46:16.231Z,100393.98
2022-08-23T19:49:27.852Z,100399.00
2022-08-23T19:52:22.105Z,100398.83
2022-08-23T19:56:00.481Z,100405.85
2022-08-23T19:58:39.945Z,100405.13
2022-08-23T20:01:43.971Z,100406.57
2022-08-23T20:04:45.704Z,100412.86
2022-08-23T20:07:40.182Z,100413.93
2022-08-23T20:10:56.375Z,100412.69
2022-08-23T20:14:01.164Z,100411.80
2022-08-23T20:16:55.039Z,100407.30
2022-08-23T20:20:16.250Z,100406.74
2022-08-23T20:23:04.217Z,100410.33
2022-08-23T20:25:50.713Z,100408.63
2022-08-23T20:29:09.314Z,100415.55
2022-08-23T20:31:54.012Z,100416.14
2022-08-23T20:35:02.996Z,100412.42
2022-08-23T20:37:56.316Z,100414.55
2022-08-23T20:41:08.970Z,100411.69
2022-08-23T20:43:50.015Z,100410.41
2022-08-23T20:46:54.693Z,100411.51
2022-08-23T20:49:39.709Z,100409.19
2022-08-23T20:52:30.546Z,100406.14
2022-08-23T20:55:17.039Z,100406.66
2022-08-23T20:58:14.579Z,100405.42
2022-08-23T21:01:27.615Z,100402.19
2022-08-23T21:04:21.833Z,100397.55
2022-08-23T21:07:07.338Z,100393.59
2022-08-23T21:10:22.693Z,100394.98
2022-08-23T21:13:44.609Z,100386.89
2022-08-23T21:16:50.528Z,100386.88
2022-08-23T21:19:47.396Z,100383.49
2022-08-23T21:22:47.245Z,100386.71
2022-08-23T21:25:57.220Z,100380.59
2022-08-23T21:28:48.740Z,100374.70
2022-08-23T21:32:07.658Z,100374.01
2022-08-23T21:35:24.211Z,100373.85
2022-08-23T21:38:01.028Z,100378.34
2022-08-23T21:41:05.816Z,100377.10
2022-08-23T21:44:11.390Z,100381.08
2022-08-23T21:47:02.348Z,100381.66
2022-08-23T21:49:40.891Z,100382.35
2022-08-23T21:52:35.333Z,100382.04
2022-08-23T21:55:17.704Z,100380.52
2022-08-23T21:58:02.329Z,100379.25
2022-08-23T22:01:09.837Z,100379.09
2022-08-23T22:04:06.595Z,100381.10
2022-08-23T22:06:55.777Z,100379.95
2022-08-23T22:10:17.203Z,100377.67
2022-08-23T22:13:15.008Z,100378.75
2022-08-23T22:16:00.837Z,100377.34
2022-08-23T22:19:02.289Z,100379.83
2022-08-23T22:21:57.292Z,100380.02
2022-08-23T22:24:58.300Z,100380.17
2022-08-23T22:27:48.549Z,100384.62
2022-08-23T22:30:25.822Z,100383.20
2022-08-23T22:33:09.322Z,100382.65
2022-08-23T22:35:49.130Z,100384.13
2022-08-23T22:38:54.288Z,100387.09
2022-08-23T22:41:39.283Z,100386.94
2022-08-23T22:44:30.229Z,100388.41
2022-08-23T22:47:28.464Z,100390.80
2022-08-23T22:50:10.858Z,100387.47
2022-08-23T22:53:03.839Z,100389.10
2022-08-23T22:55:43.049Z,100392.52
2022-08-23T22:58:18.731Z,100393.04
2022-08-23T23:01:03.751Z,100395.73
2022-08-23T23:03:53.809Z,100396.27
2022-08-23T23:06:43.474Z,100399.10
2022-08-23T23:09:28.318Z,100398.58
2022-08-23T23:12:02.920Z,100398.23
2022-08-23T23:14:45.275Z,100391.95
2022-08-23T23:17:47.053Z,100395.74
2022-08-23T23:20:41.408Z,100393.42
2022-08-23T23:23:22.962Z,100396.00
2022-08-23T23:26:04.502Z,100395.71
2022-08-23T23:29:23.604Z,100402.20
2022-08-23T23:32:06.251Z,100405.64
2022-08-23T23:34:48.655Z,100405.98
2022-08-23T23:37:39.534Z,100405.25
2022-08-23T23:40:26.751Z,100400.95
2022-08-23T23:42:59.261Z,100397.94
2022-08-23T23:45:59.350Z,100400.81
2022-08-23T23:48:38.816Z,100403.34
2022-08-23T23:51:29.804Z,100406.78
2022-08-23T23:54:26.433Z,100406.61
2022-08-23T23:57:28.922Z,100411.48
